Time;durP1;ratioP1;P1;durP2;ratioP2;P2;SDS_P1;SDS_P2;PMS_P1;PMS_P2;Temp;Humidity;BMP_temperature;BMP_pressure;BME280_temperature;BME280_humidity;BME280_pressure;Samples;Min_cycle;Max_cycle;Signal;HPM_P1;HPM_P2
2023/06/07 00:00:44;;;;;;;4.60;4.20;;;;;;;14.86;90.34;98228.19;5070355;28;20218;-87
2023/06/07 00:03:16;;;;;;;4.97;4.53;;;;;;;14.77;91.60;98236.94;5071290;28;20219;-87
2023/06/07 00:05:43;;;;;;;4.80;4.40;;;;;;;14.62;92.47;98231.13;5071063;28;20211;-87
2023/06/07 00:08:10;;;;;;;4.77;4.30;;;;;;;14.50;93.33;98229.47;5071252;28;20210;-87
2023/06/07 00:10:36;;;;;;;5.47;4.90;;;;;;;14.44;94.22;98231.78;5070266;28;20713;-87
2023/06/07 00:13:04;;;;;;;4.60;4.20;;;;;;;14.33;94.63;98231.84;5070786;28;20204;-87
2023/06/07 00:15:32;;;;;;;5.37;4.67;;;;;;;14.26;95.35;98226.19;5070870;28;20224;-87
2023/06/07 00:18:00;;;;;;;4.97;4.53;;;;;;;14.18;97.22;98222.44;5070962;28;20203;-87
2023/06/07 00:20:27;;;;;;;5.27;4.77;;;;;;;14.15;97.49;98222.69;5070398;28;20214;-87
2023/06/07 00:22:57;;;;;;;4.97;4.57;;;;;;;14.10;98.30;98215.09;5071098;28;20264;-87
2023/06/07 00:25:25;;;;;;;4.83;4.43;;;;;;;14.03;98.80;98213.06;5071002;28;20245;-87
2023/06/07 00:27:52;;;;;;;5.20;4.70;;;;;;;14.01;99.11;98209.69;5074300;28;20241;-87
2023/06/07 00:30:25;;;;;;;6.70;4.63;;;;;;;13.94;99.25;98219.13;5074259;28;20217;-87
2023/06/07 00:32:51;;;;;;;5.27;4.77;;;;;;;13.83;100.00;98227.13;5075354;28;20207;-87
2023/06/07 00:35:19;;;;;;;5.27;4.77;;;;;;;13.76;100.00;98220.63;5074966;28;20717;-87
2023/06/07 00:37:53;;;;;;;5.40;4.90;;;;;;;13.71;100.00;98222.78;5075240;28;20616;-87
2023/06/07 00:40:20;;;;;;;5.80;4.60;;;;;;;13.67;100.00;98227.50;5074128;28;20208;-87
2023/06/07 00:42:46;;;;;;;6.33;5.10;;;;;;;13.60;100.00;98222.81;5075049;28;20235;-87
2023/06/07 00:45:13;;;;;;;5.90;5.37;;;;;;;13.53;100.00;98216.28;5074514;28;20721;-87
2023/06/07 00:47:40;;;;;;;5.77;5.17;;;;;;;13.46;100.00;98217.75;5074478;28;20207;-87
2023/06/07 00:50:08;;;;;;;6.13;5.53;;;;;;;13.44;100.00;98225.00;5074113;28;20207;-87
2023/06/07 00:52:37;;;;;;;5.70;5.20;;;;;;;13.40;100.00;98234.16;5074656;28;20235;-87
2023/06/07 00:55:04;;;;;;;5.53;5.07;;;;;;;13.36;100.00;98230.91;5074445;28;20234;-87
2023/06/07 00:57:32;;;;;;;6.80;5.60;;;;;;;13.34;100.00;98234.66;5074942;28;20208;-87
2023/06/07 00:59:59;;;;;;;5.43;4.93;;;;;;;13.29;100.00;98228.84;5073282;28;20242;-87
2023/06/07 01:02:26;;;;;;;5.70;5.10;;;;;;;13.26;100.00;98223.78;5074723;28;20203;-86
2023/06/07 01:04:55;;;;;;;6.20;5.60;;;;;;;13.24;100.00;98233.66;5074580;28;20306;-86
2023/06/07 01:07:24;;;;;;;6.63;5.80;;;;;;;13.22;100.00;98227.66;5074341;28;20638;-86
2023/06/07 01:09:53;;;;;;;6.00;5.20;;;;;;;13.25;100.00;98228.25;5073605;28;20215;-86
2023/06/07 01:12:20;;;;;;;7.00;6.30;;;;;;;13.49;100.00;98228.97;5074268;28;20224;-86
2023/06/07 01:14:48;;;;;;;6.50;5.90;;;;;;;13.51;100.00;98227.03;5074414;28;20234;-86
2023/06/07 01:17:16;;;;;;;6.13;5.53;;;;;;;13.49;100.00;98226.31;5074628;28;20820;-86
2023/06/07 01:19:45;;;;;;;5.47;5.07;;;;;;;13.42;100.00;98226.91;5073742;28;20856;-86
2023/06/07 01:22:13;;;;;;;5.67;5.17;;;;;;;13.31;100.00;98234.88;5074669;28;20203;-86
2023/06/07 01:24:42;;;;;;;6.07;5.47;;;;;;;13.26;100.00;98231.75;5075927;28;20577;-86
2023/06/07 01:27:10;;;;;;;6.10;5.50;;;;;;;13.21;100.00;98223.31;5075897;28;20222;-86
2023/06/07 01:29:37;;;;;;;5.77;5.27;;;;;;;13.22;100.00;98225.84;5073047;28;20208;-86
2023/06/07 01:32:06;;;;;;;5.67;5.17;;;;;;;13.22;100.00;98219.69;5073824;28;20234;-86
2023/06/07 01:34:34;;;;;;;5.83;5.30;;;;;;;13.23;100.00;98216.06;5073549;28;20253;-86
2023/06/07 01:37:02;;;;;;;6.43;5.70;;;;;;;13.26;100.00;98221.16;5073487;28;20211;-87
2023/06/07 01:39:30;;;;;;;6.60;6.00;;;;;;;13.22;100.00;98225.00;5073089;28;20211;-86
2023/06/07 01:42:00;;;;;;;6.57;5.77;;;;;;;13.21;100.00;98218.00;5073655;28;20199;-86
2023/06/07 01:44:27;;;;;;;5.70;5.20;;;;;;;13.22;100.00;98217.03;5073494;28;20243;-87
2023/06/07 01:46:54;;;;;;;6.43;5.53;;;;;;;13.22;100.00;98217.03;5073480;28;20274;-87
2023/06/07 01:49:20;;;;;;;6.50;5.90;;;;;;;13.15;100.00;98214.00;5072493;28;20555;-86
2023/06/07 01:51:47;;;;;;;6.10;5.50;;;;;;;13.13;100.00;98209.78;5073443;28;20262;-86
2023/06/07 01:54:15;;;;;;;6.23;5.63;;;;;;;13.12;100.00;98208.09;5073351;28;20791;-86
2023/06/07 01:56:52;;;;;;;6.17;5.57;;;;;;;13.10;100.00;98210.03;5073412;28;20207;-86
2023/06/07 01:59:36;;;;;;;6.07;5.50;;;;;;;13.04;100.00;98206.06;5072540;28;20218;-87
2023/06/07 02:02:08;;;;;;;6.13;5.53;;;;;;;13.02;100.00;98207.13;5073407;28;20211;-87
2023/06/07 02:04:42;;;;;;;6.17;5.57;;;;;;;13.03;100.00;98206.16;5073380;28;20319;-87
2023/06/07 02:07:14;;;;;;;5.70;5.10;;;;;;;12.98;100.00;98205.66;5073116;28;20219;-86
2023/06/07 02:09:43;;;;;;;6.47;5.87;;;;;;;12.94;100.00;98209.47;5072533;28;20203;-86
2023/06/07 02:12:11;;;;;;;6.63;5.80;;;;;;;12.87;100.00;98208.28;5072900;28;20228;-86
2023/06/07 02:14:39;;;;;;;6.30;5.70;;;;;;;12.81;100.00;98203.44;5073346;28;20227;-86
2023/06/07 02:17:07;;;;;;;6.10;5.50;;;;;;;12.77;100.00;98205.47;5073322;28;20230;-86
2023/06/07 02:19:34;;;;;;;8.50;6.47;;;;;;;12.70;100.00;98206.06;5072387;28;20204;-86
2023/06/07 02:22:01;;;;;;;6.40;5.80;;;;;;;12.69;100.00;98199.94;5073029;28;20210;-86
2023/06/07 02:24:28;;;;;;;9.37;6.77;;;;;;;12.73;100.00;98200.53;5073008;28;20223;-86
2023/06/07 02:26:55;;;;;;;7.43;6.73;;;;;;;12.79;100.00;98190.31;5073251;28;20215;-86
2023/06/07 02:29:22;;;;;;;6.87;6.27;;;;;;;12.74;100.00;98194.25;5072040;28;20690;-86
2023/06/07 02:31:50;;;;;;;7.40;6.20;;;;;;;12.69;100.00;98196.41;5072858;28;20230;-86
2023/06/07 02:34:17;;;;;;;7.83;6.30;;;;;;;12.66;100.00;98204.63;5072765;28;20238;-86
2023/06/07 02:36:43;;;;;;;6.80;6.10;;;;;;;12.62;100.00;98205.81;5072640;28;20207;-86
2023/06/07 02:39:10;;;;;;;7.10;6.47;;;;;;;12.64;100.00;98203.88;5071818;28;20226;-87
2023/06/07 02:41:36;;;;;;;6.73;6.13;;;;;;;12.59;100.00;98209.53;5072699;28;20219;-86
2023/06/07 02:44:03;;;;;;;6.77;6.17;;;;;;;12.54;100.00;98206.38;5072539;28;20238;-86
2023/06/07 02:46:29;;;;;;;6.20;5.70;;;;;;;12.54;100.00;98205.56;5072637;28;20215;-86
2023/06/07 02:48:57;;;;;;;7.20;6.50;;;;;;;12.51;100.00;98211.06;5071848;28;20211;-86
2023/06/07 02:51:25;;;;;;;7.77;6.97;;;;;;;12.50;100.00;98201.44;5071557;28;20232;-86
2023/06/07 02:53:53;;;;;;;7.20;6.50;;;;;;;12.53;100.00;98209.19;5072326;28;20230;-86
2023/06/07 02:56:19;;;;;;;7.07;6.37;;;;;;;12.52;100.00;98207.47;5072639;28;20203;-86
2023/06/07 02:58:46;;;;;;;6.77;6.17;;;;;;;12.50;100.00;98215.56;5072477;28;20210;-87
2023/06/07 03:01:12;;;;;;;6.00;5.47;;;;;;;12.51;100.00;98205.78;5071685;28;20221;-86
2023/06/07 03:03:38;;;;;;;6.93;6.23;;;;;;;12.46;100.00;98205.31;5072394;28;20234;-86
2023/06/07 03:06:09;;;;;;;7.33;6.63;;;;;;;12.37;100.00;98206.84;5071954;28;20210;-86
2023/06/07 03:08:36;;;;;;;8.37;7.00;;;;;;;12.30;100.00;98208.22;5071800;28;20736;-86
2023/06/07 03:11:03;;;;;;;7.67;6.80;;;;;;;12.27;100.00;98215.56;5071292;28;20226;-86
2023/06/07 03:13:29;;;;;;;8.00;6.70;;;;;;;12.23;100.00;98208.81;5072037;28;20218;-86
2023/06/07 03:15:56;;;;;;;7.90;7.20;;;;;;;12.19;100.00;98210.00;5071978;28;20219;-86
2023/06/07 03:18:23;;;;;;;7.33;6.63;;;;;;;12.18;100.00;98200.38;5071737;28;20214;-86
2023/06/07 03:20:49;;;;;;;8.40;7.60;;;;;;;12.13;100.00;98207.81;5071164;28;20210;-86
2023/06/07 03:23:17;;;;;;;7.83;7.13;;;;;;;12.14;100.00;98212.16;5071535;28;20233;-86
2023/06/07 03:25:43;;;;;;;9.63;7.73;;;;;;;12.14;100.00;98217.44;5071969;28;20218;-86
2023/06/07 03:28:10;;;;;;;8.33;7.53;;;;;;;12.15;100.00;98214.69;5071887;28;20210;-86
2023/06/07 03:30:37;;;;;;;7.73;7.03;;;;;;;12.21;100.00;98216.03;5071109;28;20301;-86
2023/06/07 03:33:03;;;;;;;7.77;7.07;;;;;;;12.26;100.00;98217.38;5071360;28;20234;-86
2023/06/07 03:35:30;;;;;;;8.13;7.07;;;;;;;12.32;100.00;98213.44;5071496;28;20234;-86
2023/06/07 03:37:57;;;;;;;8.57;7.77;;;;;;;12.41;100.00;98220.69;5071692;28;20233;-86
2023/06/07 03:40:25;;;;;;;7.50;6.90;;;;;;;12.45;100.00;98212.41;5071047;28;20218;-86
2023/06/07 03:42:51;;;;;;;7.40;6.70;;;;;;;12.44;100.00;98210.72;5071524;28;20210;-87
2023/06/07 03:45:18;;;;;;;7.90;7.10;;;;;;;12.42;100.00;98214.44;5086326;22;20293;-77
2023/06/07 03:47:47;;;;;;;7.60;6.90;;;;;;;12.40;100.00;98219.00;5071429;28;20211;-77
2023/06/07 03:50:14;;;;;;;7.60;6.90;;;;;;;12.35;100.00;98218.50;5070864;28;20709;-74
2023/06/07 03:52:40;;;;;;;7.57;6.87;;;;;;;12.36;100.00;98222.84;5071456;28;20709;-75
2023/06/07 03:55:09;;;;;;;8.07;7.27;;;;;;;12.43;100.00;98219.63;5071572;28;20237;-75
2023/06/07 03:57:37;;;;;;;8.33;7.53;;;;;;;12.41;100.00;98221.53;5071523;28;20207;-75
2023/06/07 04:00:11;;;;;;;7.80;7.07;;;;;;;12.35;100.00;98221.16;5070614;28;20222;-77
2023/06/07 04:02:38;;;;;;;7.80;7.10;;;;;;;12.27;100.00;98227.03;5070689;28;20268;-74
2023/06/07 04:05:05;;;;;;;7.77;7.07;;;;;;;12.23;100.00;98217.59;5071338;28;20283;-75
2023/06/07 04:07:32;;;;;;;7.53;6.83;;;;;;;12.23;100.00;98217.59;5071250;28;20215;-75
2023/06/07 04:09:58;;;;;;;7.93;7.13;;;;;;;12.27;100.00;98223.50;5070647;28;20211;-76
2023/06/07 04:12:25;;;;;;;7.47;6.87;;;;;;;12.28;100.00;98222.59;5071236;28;20237;-74
2023/06/07 04:14:53;;;;;;;9.10;8.20;;;;;;;12.33;100.00;98223.91;5071221;28;20238;-75
2023/06/07 04:17:19;;;;;;;8.10;7.30;;;;;;;12.39;100.00;98225.25;5071566;28;20298;-75
2023/06/07 04:19:47;;;;;;;8.97;8.17;;;;;;;12.42;100.00;98217.09;5070709;28;20207;-75
2023/06/07 04:22:14;;;;;;;8.87;7.97;;;;;;;12.50;100.00;98225.28;5071069;28;20301;-75
2023/06/07 04:24:41;;;;;;;8.67;7.83;;;;;;;12.54;100.00;98221.47;5070881;28;20230;-75
2023/06/07 04:27:11;;;;;;;8.43;7.43;;;;;;;12.59;100.00;98221.97;5071203;28;20214;-75
2023/06/07 04:29:40;;;;;;;7.67;6.97;;;;;;;12.63;100.00;98220.75;5070144;28;20211;-75
2023/06/07 04:32:09;;;;;;;8.97;8.07;;;;;;;12.71;100.00;98224.50;5071423;28;20231;-75
2023/06/07 04:34:40;;;;;;;9.77;8.83;;;;;;;12.75;100.00;98225.13;5071042;28;20231;-75
2023/06/07 04:37:07;;;;;;;8.40;7.70;;;;;;;12.80;100.00;98228.28;5071052;28;20305;-75
2023/06/07 04:39:36;;;;;;;8.90;7.63;;;;;;;12.83;100.00;98225.41;5070233;28;20217;-75
2023/06/07 04:42:03;;;;;;;8.50;7.70;;;;;;;12.88;100.00;98236.47;5070822;28;20233;-75
2023/06/07 04:44:30;;;;;;;7.80;7.10;;;;;;;12.92;100.00;98227.34;5070603;28;20235;-75
2023/06/07 04:46:57;;;;;;;8.00;7.20;;;;;;;12.91;100.00;98230.97;5071004;28;20217;-75
2023/06/07 04:49:25;;;;;;;7.40;6.80;;;;;;;12.90;100.00;98224.78;5069977;28;20242;-75
2023/06/07 04:51:52;;;;;;;8.20;7.30;;;;;;;12.98;100.00;98226.91;5070766;28;20320;-75
2023/06/07 04:54:19;;;;;;;7.87;6.93;;;;;;;13.13;100.00;98225.69;5070562;28;20713;-75
2023/06/07 04:56:46;;;;;;;7.60;6.77;;;;;;;13.28;100.00;98229.81;5070733;28;20585;-75
2023/06/07 04:59:12;;;;;;;7.60;6.90;;;;;;;13.48;100.00;98226.44;5069881;28;20696;-75
2023/06/07 05:01:41;;;;;;;8.07;7.27;;;;;;;13.72;100.00;98230.66;5070794;28;20212;-75
2023/06/07 05:04:07;;;;;;;8.27;7.53;;;;;;;14.16;100.00;98232.34;5070548;28;20686;-76
2023/06/07 05:06:37;;;;;;;7.90;7.20;;;;;;;14.66;100.00;98234.38;5070910;28;20207;-77
2023/06/07 05:09:04;;;;;;;6.90;6.20;;;;;;;15.25;100.00;98232.75;5070563;28;20207;-76
2023/06/07 05:11:30;;;;;;;7.53;5.87;;;;;;;15.79;100.00;98223.50;5070477;28;20211;-77
2023/06/07 05:13:57;;;;;;;6.83;6.20;;;;;;;16.34;98.64;98225.56;5073672;28;20231;-76
2023/06/07 05:16:24;;;;;;;7.10;6.50;;;;;;;16.67;92.49;98218.03;5074370;28;20218;-76
2023/06/07 05:18:56;;;;;;;6.87;6.13;;;;;;;17.08;88.42;98222.16;5074338;28;20621;-76
2023/06/07 05:21:22;;;;;;;7.33;6.63;;;;;;;17.46;85.28;98214.06;5073464;28;20207;-76
2023/06/07 05:23:50;;;;;;;7.83;7.03;;;;;;;17.68;81.38;98206.50;5073997;28;20205;-76
2023/06/07 05:26:17;;;;;;;6.87;6.17;;;;;;;17.94;79.19;98212.00;5074244;28;20234;-77
2023/06/07 05:28:43;;;;;;;9.57;6.87;;;;;;;18.26;77.97;98207.00;5073872;28;20211;-76
2023/06/07 05:31:11;;;;;;;7.97;6.63;;;;;;;18.61;75.81;98199.88;5073324;28;20218;-77
2023/06/07 05:33:38;;;;;;;9.47;7.00;;;;;;;18.73;72.33;98185.25;5074236;28;20231;-77
2023/06/07 05:36:05;;;;;;;9.03;7.37;;;;;;;18.88;72.14;98189.03;5074153;28;20207;-76
2023/06/07 05:38:31;;;;;;;7.40;6.70;;;;;;;19.06;70.58;98187.16;5074031;28;20294;-76
2023/06/07 05:40:59;;;;;;;6.83;6.13;;;;;;;19.28;70.34;98188.50;5073436;28;20215;-76
2023/06/07 05:43:26;;;;;;;8.20;5.90;;;;;;;19.46;69.07;98189.25;5073834;28;20858;-76
2023/06/07 05:45:52;;;;;;;6.70;6.10;;;;;;;19.70;68.38;98187.53;5073561;28;20235;-81
2023/06/07 05:48:19;;;;;;;7.93;6.27;;;;;;;19.86;65.59;98170.66;5073777;28;20218;-80
2023/06/07 05:50:46;;;;;;;6.97;6.27;;;;;;;19.94;66.46;98184.13;5073085;28;20574;-79
2023/06/07 05:53:13;;;;;;;6.43;5.37;;;;;;;20.15;66.48;98188.06;5073778;28;20238;-77
2023/06/07 05:55:39;;;;;;;8.17;5.80;;;;;;;20.30;64.99;98181.03;5073351;28;20736;-77
2023/06/07 05:58:07;;;;;;;7.13;5.60;;;;;;;20.48;64.24;98173.69;5073555;28;20213;-75
2023/06/07 06:00:34;;;;;;;6.17;5.57;;;;;;;20.65;63.75;98170.00;5072846;28;20587;-76
2023/06/07 06:03:01;;;;;;;6.90;5.70;;;;;;;20.73;62.79;98161.94;5073575;28;20327;-76
2023/06/07 06:05:30;;;;;;;5.77;5.27;;;;;;;20.88;62.54;98165.66;5073142;28;20231;-76
2023/06/07 06:07:58;;;;;;;6.80;6.20;;;;;;;21.05;61.20;98161.94;5073382;28;20211;-76
2023/06/07 06:10:25;;;;;;;6.33;5.20;;;;;;;21.05;61.04;98156.59;5072772;28;20661;-76
2023/06/07 06:12:51;;;;;;;6.17;5.57;;;;;;;21.14;60.84;98155.53;5073243;28;20231;-77
2023/06/07 06:15:19;;;;;;;6.13;5.63;;;;;;;21.20;60.08;98162.06;5073179;28;20227;-78
2023/06/07 06:17:47;;;;;;;5.90;4.97;;;;;;;21.42;60.47;98166.72;5073333;28;20235;-78
2023/06/07 06:20:16;;;;;;;5.57;5.00;;;;;;;21.66;59.63;98159.44;5072661;28;20212;-76
2023/06/07 06:22:42;;;;;;;5.67;5.17;;;;;;;21.82;58.74;98151.31;5073138;28;20207;-76
2023/06/07 06:25:11;;;;;;;4.70;4.30;;;;;;;22.03;58.62;98156.06;5072098;28;20616;-77
2023/06/07 06:27:38;;;;;;;5.80;5.30;;;;;;;22.01;58.17;98158.13;5073034;28;20246;-76
2023/06/07 06:30:06;;;;;;;5.00;4.50;;;;;;;22.05;57.98;98149.50;5072241;28;20699;-76
2023/06/07 06:32:34;;;;;;;5.43;5.00;;;;;;;21.98;57.24;98145.84;5072709;28;20227;-78
2023/06/07 06:35:01;;;;;;;5.70;4.83;;;;;;;21.97;58.74;98159.47;5073057;28;20241;-77
2023/06/07 06:37:29;;;;;;;6.10;5.50;;;;;;;22.14;58.57;98161.06;5072986;28;20203;-78
2023/06/07 06:39:56;;;;;;;5.03;4.63;;;;;;;22.34;59.25;98157.75;5072133;28;20265;-76
2023/06/07 06:42:22;;;;;;;5.07;4.60;;;;;;;22.57;57.77;98153.22;5071802;28;20215;-77
2023/06/07 06:44:49;;;;;;;4.57;4.17;;;;;;;22.71;57.59;98154.28;5072396;28;20329;-75
2023/06/07 06:47:15;;;;;;;4.90;4.40;;;;;;;22.74;57.71;98159.31;5070093;28;20641;-76
2023/06/07 06:49:43;;;;;;;4.63;4.10;;;;;;;22.93;57.25;98164.22;5069025;28;20218;-76
2023/06/07 06:52:10;;;;;;;5.20;4.70;;;;;;;22.94;57.25;98164.03;5069700;28;20740;-76
2023/06/07 06:54:37;;;;;;;4.93;4.53;;;;;;;23.09;56.68;98159.50;5070220;28;20285;-77
2023/06/07 06:57:04;;;;;;;5.20;4.70;;;;;;;23.09;55.16;98153.25;5072235;28;20215;-76
2023/06/07 06:59:30;;;;;;;5.97;5.00;;;;;;;22.92;54.96;98141.78;5070266;28;20208;-76
2023/06/07 07:01:58;;;;;;;4.60;4.20;;;;;;;22.59;56.15;98144.94;5069413;28;20218;-76
2023/06/07 07:04:25;;;;;;;5.30;4.90;;;;;;;22.26;57.65;98168.53;5069528;28;20266;-77
2023/06/07 07:06:53;;;;;;;5.03;4.63;;;;;;;21.75;59.33;98177.22;5068789;28;20222;-78
2023/06/07 07:09:19;;;;;;;5.70;5.10;;;;;;;21.41;60.30;98183.88;5071371;28;20693;-77
2023/06/07 07:11:46;;;;;;;4.40;4.00;;;;;;;20.83;61.85;98191.31;5072170;28;20562;-77
2023/06/07 07:14:12;;;;;;;5.63;4.80;;;;;;;20.40;64.48;98203.22;5071787;28;20232;-76
2023/06/07 07:16:39;;;;;;;6.10;4.73;;;;;;;20.05;68.76;98224.06;5071973;28;20219;-79
2023/06/07 07:19:05;;;;;;;5.00;4.60;;;;;;;19.97;71.07;98232.91;5070331;28;20211;-77
2023/06/07 07:21:32;;;;;;;5.10;4.60;;;;;;;19.93;71.76;98226.19;5069232;28;20214;-77
2023/06/07 07:24:00;;;;;;;4.82;4.40;;;;;;;20.00;71.32;98226.38;5070677;28;20491;-77
2023/06/07 07:26:27;;;;;;;5.70;5.20;;;;;;;19.94;70.41;98217.13;5070415;28;20239;-77
2023/06/07 07:28:53;;;;;;;6.23;4.90;;;;;;;19.94;71.97;98225.16;5071621;28;20210;-76
2023/06/07 07:31:20;;;;;;;4.80;4.30;;;;;;;19.90;71.37;98214.94;5071281;28;20207;-76
2023/06/07 07:33:47;;;;;;;5.60;5.10;;;;;;;20.00;70.94;98216.47;5071797;28;20227;-75
2023/06/07 07:36:14;;;;;;;6.33;4.70;;;;;;;20.03;71.78;98221.53;5071589;28;20586;-74
2023/06/07 07:38:41;;;;;;;5.30;4.80;;;;;;;20.10;69.29;98206.50;5071461;28;20257;-74
2023/06/07 07:41:09;;;;;;;6.60;5.00;;;;;;;20.09;70.27;98215.56;5070887;28;20666;-75
2023/06/07 07:43:35;;;;;;;6.10;5.50;;;;;;;20.09;70.96;98215.56;5071531;28;20203;-75
2023/06/07 07:46:02;;;;;;;5.33;4.60;;;;;;;20.16;71.88;98216.56;5071609;28;20230;-75
2023/06/07 07:48:31;;;;;;;6.17;5.20;;;;;;;20.26;69.81;98209.22;5070775;28;20214;-79
2023/06/07 07:50:59;;;;;;;4.93;4.53;;;;;;;20.20;68.79;98203.66;5072888;28;20219;-78
2023/06/07 07:53:26;;;;;;;5.83;4.43;;;;;;;20.15;69.65;98209.53;5091358;28;20230;-79
2023/06/07 07:55:52;;;;;;;5.13;4.50;;;;;;;20.21;69.82;98210.72;5091377;28;20238;-80
2023/06/07 07:58:20;;;;;;;5.50;5.00;;;;;;;20.23;71.19;98217.59;5091410;28;20217;-78
2023/06/07 08:01:12;;;;;;;4.50;4.10;;;;;;;20.38;66.58;98193.63;5090814;28;20206;-78
2023/06/07 08:03:38;;;;;;;4.70;4.20;;;;;;;20.15;68.08;98197.94;5089592;28;20213;-74
2023/06/07 08:06:05;;;;;;;4.53;3.63;;;;;;;20.27;70.05;98213.59;5089001;28;20207;-74
2023/06/07 08:08:31;;;;;;;3.83;3.50;;;;;;;20.31;70.63;98214.09;5088456;28;20210;-74
2023/06/07 08:10:58;;;;;;;3.37;3.10;;;;;;;20.41;67.24;98194.13;5088159;28;20307;-74
2023/06/07 08:13:26;;;;;;;3.27;2.80;;;;;;;20.48;65.30;98194.34;5091493;28;20302;-74
2023/06/07 08:15:52;;;;;;;3.70;3.40;;;;;;;20.55;67.93;98201.53;5091384;28;20229;-74
2023/06/07 08:18:19;;;;;;;3.90;3.60;;;;;;;20.69;68.96;98208.09;5091162;28;20674;-74
2023/06/07 08:20:45;;;;;;;3.10;2.90;;;;;;;20.94;64.20;98178.41;5090566;28;20210;-75
2023/06/07 08:23:12;;;;;;;3.33;3.13;;;;;;;20.96;66.42;98197.88;5091190;28;20316;-75
2023/06/07 08:25:39;;;;;;;3.47;3.20;;;;;;;20.90;66.49;98193.19;5091303;28;20226;-75
2023/06/07 08:28:05;;;;;;;2.90;2.70;;;;;;;20.93;66.27;98192.88;5091375;28;20293;-75
2023/06/07 08:30:33;;;;;;;4.70;3.70;;;;;;;21.06;69.02;98211.16;5090497;28;20290;-74
2023/06/07 08:33:00;;;;;;;3.93;3.10;;;;;;;21.21;67.57;98198.72;5090724;28;20318;-74
2023/06/07 08:35:26;;;;;;;3.60;3.30;;;;;;;21.14;64.35;98181.56;5090967;28;20234;-76
2023/06/07 08:37:53;;;;;;;2.93;2.73;;;;;;;21.29;68.05;98206.75;5091418;28;20293;-74
2023/06/07 08:40:20;;;;;;;3.00;2.80;;;;;;;21.44;64.11;98179.00;5090503;28;20212;-74
2023/06/07 08:42:46;;;;;;;3.73;3.43;;;;;;;21.34;62.31;98167.59;5091004;28;20702;-74
2023/06/07 08:45:14;;;;;;;3.20;2.90;;;;;;;21.36;63.94;98176.34;5091059;28;20238;-74
2023/06/07 08:47:44;;;;;;;3.67;3.33;;;;;;;21.49;64.92;98182.00;5092054;28;20209;-74
2023/06/07 08:50:13;;;;;;;3.70;3.40;;;;;;;21.68;62.90;98170.88;5094351;28;20579;-74
2023/06/07 08:52:42;;;;;;;3.73;3.30;;;;;;;21.88;60.43;98161.38;5094552;28;20306;-77
2023/06/07 08:55:11;;;;;;;2.70;2.50;;;;;;;22.08;62.87;98178.75;5094965;28;20299;-74
2023/06/07 08:57:38;;;;;;;2.60;2.40;;;;;;;22.36;63.41;98188.00;5095174;28;20658;-76
2023/06/07 09:00:08;;;;;;;2.83;2.60;;;;;;;22.51;60.74;98177.34;5094244;28;20580;-74
2023/06/07 09:02:35;;;;;;;2.10;2.00;;;;;;;22.71;60.57;98174.00;5094714;28;20575;-77
2023/06/07 09:05:05;;;;;;;3.43;3.10;;;;;;;22.77;58.66;98149.00;5094791;28;20226;-74
2023/06/07 09:07:32;;;;;;;3.30;2.50;;;;;;;22.82;57.21;98146.63;5094916;28;20210;-76
2023/06/07 09:09:59;;;;;;;3.53;2.60;;;;;;;22.84;56.06;98141.88;5094060;28;20233;-74
2023/06/07 09:12:25;;;;;;;2.60;2.40;;;;;;;22.95;56.67;98152.22;5094521;28;20211;-76
2023/06/07 09:14:53;;;;;;;2.60;2.40;;;;;;;23.19;55.36;98138.53;5094086;28;20263;-74
2023/06/07 09:17:20;;;;;;;2.73;2.53;;;;;;;23.29;56.09;98155.25;5094589;28;20207;-74
2023/06/07 09:19:47;;;;;;;2.83;2.63;;;;;;;23.12;57.34;98159.16;5093972;28;20594;-75
2023/06/07 09:22:17;;;;;;;2.70;2.50;;;;;;;23.00;58.74;98174.09;5094342;28;20213;-73
2023/06/07 09:24:43;;;;;;;2.73;2.27;;;;;;;23.02;58.85;98174.72;5094415;28;20223;-72
2023/06/07 09:27:13;;;;;;;2.13;2.03;;;;;;;23.06;57.34;98162.56;5094272;28;20210;-72
2023/06/07 09:29:40;;;;;;;2.43;2.10;;;;;;;23.15;57.44;98153.38;5093594;28;20199;-73
2023/06/07 09:32:20;;;;;;;1.93;1.73;;;;;;;23.31;56.65;98153.25;5094517;28;20207;-72
2023/06/07 09:34:47;;;;;;;2.33;1.90;;;;;;;23.47;55.37;98139.56;5093985;28;20237;-73
2023/06/07 09:37:20;;;;;;;2.83;2.40;;;;;;;23.41;54.49;98137.59;5094181;28;20210;-72
2023/06/07 09:39:50;;;;;;;2.53;2.10;;;;;;;23.24;54.39;98135.28;5093628;28;20211;-75
2023/06/07 09:42:17;;;;;;;3.47;2.40;;;;;;;22.92;53.94;98135.59;5094861;28;20248;-76
2023/06/07 09:44:44;;;;;;;2.80;2.20;;;;;;;22.74;54.13;98130.50;5102893;22;20238;-76
2023/06/07 09:47:21;;;;;;;2.30;2.10;;;;;;;22.59;54.64;98136.88;5073895;28;20203;-75
2023/06/07 09:49:48;;;;;;;2.10;1.90;;;;;;;22.49;55.64;98144.38;5072902;28;20846;-79
2023/06/07 09:52:16;;;;;;;2.10;2.00;;;;;;;22.40;55.92;98138.16;5073488;28;20211;-79
2023/06/07 09:54:44;;;;;;;2.22;2.03;;;;;;;22.40;55.98;98135.47;5072138;28;20502;-77
2023/06/07 09:57:12;;;;;;;2.50;2.10;;;;;;;22.26;55.07;98128.16;5073717;28;20199;-77
2023/06/07 09:59:39;;;;;;;2.87;2.07;;;;;;;22.44;54.78;98126.03;5070606;28;20438;-76
2023/06/07 10:02:24;;;;;;;2.73;2.10;;;;;;;22.74;54.29;98121.59;5073511;28;20257;-76
2023/06/07 10:04:53;;;;;;;2.10;2.00;;;;;;;22.97;53.83;98117.81;5073165;28;20657;-76
2023/06/07 10:07:23;;;;;;;1.80;1.70;;;;;;;23.17;54.04;98118.16;5073029;28;20215;-77
2023/06/07 10:09:53;;;;;;;1.70;1.60;;;;;;;23.38;51.39;98102.91;5072547;28;20641;-77
2023/06/07 10:12:21;;;;;;;2.30;1.80;;;;;;;23.51;52.40;98104.94;5073043;28;20207;-77
2023/06/07 10:14:48;;;;;;;2.50;2.30;;;;;;;23.72;52.50;98113.94;5072994;28;20579;-77
2023/06/07 10:17:19;;;;;;;2.33;2.13;;;;;;;23.73;52.07;98106.69;5073204;28;20214;-75
2023/06/07 10:19:48;;;;;;;4.10;2.23;;;;;;;23.74;52.79;98117.31;5072341;28;20344;-77
2023/06/07 10:22:19;;;;;;;2.60;2.40;;;;;;;23.72;54.50;98132.00;5072985;28;20253;-77
2023/06/07 10:24:59;;;;;;;2.33;2.20;;;;;;;23.73;52.02;98104.84;5072965;28;20232;-77
2023/06/07 10:27:29;;;;;;;2.10;2.00;;;;;;;23.74;52.80;98111.91;5073050;28;20268;-75
2023/06/07 10:30:03;;;;;;;2.53;2.20;;;;;;;23.86;52.09;98110.41;5071977;28;20677;-75
2023/06/07 10:32:31;;;;;;;3.10;2.07;;;;;;;23.91;53.08;98113.41;5072998;28;20202;-78
2023/06/07 10:35:00;;;;;;;2.33;2.10;;;;;;;24.16;52.90;98117.44;5072623;28;20239;-76
2023/06/07 10:37:30;;;;;;;2.40;2.20;;;;;;;24.51;52.03;98110.31;5072709;28;20238;-76
2023/06/07 10:39:59;;;;;;;2.13;2.03;;;;;;;24.51;50.39;98088.69;5071764;28;20239;-76
2023/06/07 10:42:26;;;;;;;2.40;2.20;;;;;;;24.29;50.78;98090.56;5072483;28;20203;-76
2023/06/07 10:44:53;;;;;;;2.60;2.40;;;;;;;24.08;49.90;98079.72;5072474;28;20614;-76
2023/06/07 10:47:27;;;;;;;3.10;2.17;;;;;;;23.93;51.37;98097.00;5072626;28;20211;-76
2023/06/07 10:49:54;;;;;;;2.23;2.03;;;;;;;23.74;51.25;98084.94;5071583;28;20214;-76
2023/06/07 10:52:22;;;;;;;2.30;2.10;;;;;;;23.49;52.96;98113.25;5072291;28;20211;-76
2023/06/07 10:54:48;;;;;;;2.95;2.30;;;;;;;23.44;54.46;98121.06;5069701;28;20442;-77
2023/06/07 10:57:32;;;;;;;2.30;2.10;;;;;;;23.20;55.70;98124.03;5069775;28;20211;-77
2023/06/07 11:00:28;;;;;;;2.97;2.67;;;;;;;23.23;55.00;98118.25;5070623;28;20207;-78
2023/06/07 11:03:35;;;;;;;2.40;2.20;;;;;;;23.51;56.19;98124.69;5070551;28;20721;-82
2023/06/07 11:06:06;;;;;;;2.43;2.20;;;;;;;23.83;55.80;98120.75;5070635;28;20904;-78
2023/06/07 11:08:36;;;;;;;2.50;2.30;;;;;;;24.06;54.23;98121.44;5071392;28;20265;-78
2023/06/07 11:11:03;;;;;;;2.40;2.20;;;;;;;23.88;53.25;98105.69;5069277;28;20360;-78
2023/06/07 11:14:12;;;;;;;2.50;2.30;;;;;;;23.68;52.75;98090.22;5071152;28;20700;-78
2023/06/07 11:16:38;;;;;;;2.27;2.17;;;;;;;23.56;51.28;98081.78;5070989;28;20341;-77
2023/06/07 11:19:13;;;;;;;2.53;2.33;;;;;;;23.85;53.68;98119.53;5070191;28;20684;-77
2023/06/07 11:22:00;;;;;;;2.10;2.00;;;;;;;24.03;52.47;98092.94;5071165;28;20250;-77
2023/06/07 11:24:26;;;;;;;2.43;2.27;;;;;;;24.28;53.50;98105.09;5071031;28;20234;-77
2023/06/07 11:26:53;;;;;;;2.33;2.10;;;;;;;24.49;51.53;98088.03;5070183;28;20583;-77
2023/06/07 11:29:21;;;;;;;2.83;2.30;;;;;;;24.71;51.42;98087.88;5069251;28;20434;-75
2023/06/07 11:31:48;;;;;;;2.50;2.30;;;;;;;24.78;48.90;98058.16;5071518;28;20446;-77
2023/06/07 11:34:15;;;;;;;2.53;2.33;;;;;;;24.88;48.51;98058.66;5069093;28;20650;-77